Tiempo atmosférico en la estación meteorológica de Teror, Las Palmas (683 m.)



Fecha
DESCASC
Temp. máxima en grados centígrados (hora)
DESCASC
Temp. mínima en grados centígrados (hora)
DESCASC
Temp. media en grados centígrados
DESCASC
Racha de viento máxima en m/sg (hora)
DESCASC
Velocidad máxima media en intervalos de 10 minutos(hora)
DESCASC
Precipitaciones diarias en mm
DESCASC
Precipitaciones de 00:00 a 06:00 en mm
DESCASC
Precipitaciones de 06:00 a 12:00 en mm
DESCASC
Precipitaciones de 12:00 a 18:00 en mm
DESCASC
Precipitaciones de 18:00 a 24:00 en mm
DESCASC
14-07-2019 23.1 (12:40) 12.7 (00:00) 17.9 10 (11:30) 5 (10:40) 0 0 0 0 0
13-07-2019 25.1 (14:50) 12.3 (00:00) 18.7 6.11 (18:30) 3.61 (18:30) 0 0 0 0 0
12-07-2019 -- (--) -- (--) -- -- (--) -- (--) -- 0 -- 0 0
11-07-2019 22.6 (16:30) 14.4 (00:00) 18.5 7.78 (16:30) 3.89 (16:10) 0 0 0 0 0
10-07-2019 22.2 (13:10) 14.8 (00:00) 18.5 8.61 (14:40) 4.17 (14:30) 0.2 0 0 0 0.2
09-07-2019 21.6 (12:50) 14.7 (00:00) 18.2 7.22 (13:10) 3.89 (13:50) 0 0 0 0 0
08-07-2019 21.8 (13:40) 14.1 (00:00) 17.9 7.22 (14:30) 3.61 (14:00) 0 0 0 0 0
07-07-2019 21.4 (13:20) 14.2 (00:00) 17.8 5.83 (12:40) 3.33 (13:20) 0 0 0 0 0
06-07-2019 21.1 (18:20) 13.3 (00:00) 17.2 6.67 (14:30) 3.61 (16:40) 0.4 0 0.4 0 0
05-07-2019 22.3 (17:40) 12.1 (00:00) 17.2 5.83 (16:30) 3.33 (15:10) 0 0 0 0 0
04-07-2019 20.3 (17:30) 12.9 (00:00) 16.6 5.83 (09:10) 3.06 (16:10) 1 0.2 0.8 0 0
03-07-2019 20.6 (12:50) 14 (00:00) 17.3 7.22 (11:20) 4.17 (11:50) 0.4 0.4 0 0 0
02-07-2019 19.4 (16:00) 14.4 (05:00) 16.9 6.11 (15:40) 3.61 (15:40) 0 0 0 0 0
01-07-2019 21 (15:00) 13.2 (01:00) 17.1 7.22 (15:30) 3.89 (15:30) 0 0 0 0 0
30-06-2019 21.3 (15:40) 13.6 (00:00) 17.4 6.67 (16:00) 3.61 (15:20) 0 0 0 0 0
29-06-2019 22 (11:40) 12.5 (00:00) 17.3 6.94 (17:20) 3.89 (16:00) 0 0 0 0 0
28-06-2019 20.8 (13:00) 13.7 (00:00) 17.2 7.5 (13:10) 3.89 (14:50) 0 0 0 0 0
27-06-2019 21.4 (14:40) 14 (00:00) 17.7 7.78 (16:00) 3.89 (16:00) 0 0 0 0 0
26-06-2019 20.4 (13:00) 14.6 (00:00) 17.5 9.44 (04:30) 4.44 (03:20) 0.2 0 0 0.2 0
25-06-2019 19.5 (13:40) 14.3 (00:00) 16.9 8.61 (15:30) 4.72 (15:40) 2.6 0 0.8 1 0.8
24-06-2019 23.6 (09:40) 14.5 (00:00) 19.1 7.22 (02:00) 4.72 (01:40) 0 0 0 0 0
23-06-2019 24 (13:00) 15.1 (00:00) 19.6 8.89 (03:40) 4.72 (14:10) 0 0 0 0 0
22-06-2019 23.4 (14:40) 13.6 (00:00) 18.5 11.67 (20:30) 5.56 (20:20) 0 0 0 0 0
21-06-2019 21.2 (15:40) 14.2 (00:00) 17.7 8.33 (23:10) 3.61 (14:00) 0 0 0 0 0
20-06-2019 22.5 (14:40) 14.3 (00:00) 18.4 8.33 (05:40) 4.17 (15:30) 0 0 0 0 0
19-06-2019 -- (--) -- (--) -- -- (--) -- (--) -- -- -- 0 0
18-06-2019 -- (--) -- (--) -- -- (--) -- (--) -- 0 0 0 --
17-06-2019 23.2 (14:50) 9.9 (00:00) 16.6 7.22 (03:20) 3.89 (03:20) 0 0 0 0 0
16-06-2019 20.1 (11:20) 8.2 (00:00) 14.2 4.44 (11:00) 2.5 (11:00) 0 0 0 0 0

Gráficas

Temp. máximas Temp. mínimas Temp. medias Precipitaciones Rachas de viento máximas Velocidades máximas media en intervalos de 10 minutos

Datos horarios

Fecha y hora oficial Temperatura (ºC) Velocidad del viento (km/h) Dirección del viento Racha (km/h) Dirección de racha Precipitación (mm) Presión (hPa) Tendencia (hPa) Humedad (%)
2019-07-15 23:00:00 16.2 9 Oeste 18 Oeste 0 -- -- 97
2019-07-15 22:00:00 16.4 7 Oeste 18 Oeste 0 -- -- 97
2019-07-15 21:00:00 16.7 9 Noroeste 18 Norte 0 -- -- 96
2019-07-15 20:00:00 17.6 9 Noroeste 21 Norte 0 -- -- 91
2019-07-15 19:00:00 19.6 10 Norte 27 Noroeste 0 -- -- 86
2019-07-15 18:00:00 21.6 16 Noroeste 24 Norte 0 -- -- 79
2019-07-15 17:00:00 23 14 Norte 24 Norte 0 -- -- 74
2019-07-15 16:00:00 22.1 7 Norte 24 Nordeste 0 -- -- 75
2019-07-15 15:00:00 22.7 15 Norte 26 Norte 0 -- -- 76
2019-07-15 14:00:00 22.6 13 Norte 23 Norte 0 -- -- 76
2019-07-15 13:00:00 23.7 10 Nordeste 17 Nordeste 0 -- -- 73
2019-07-15 12:00:00 22 8 Norte 18 Norte 0 -- -- 78
2019-07-15 11:00:00 20.9 10 Nordeste 17 Nordeste 0 -- -- 81
2019-07-15 10:00:00 18.1 3 Norte 10 Sudoeste 0 -- -- 92
2019-07-15 09:00:00 17.4 5 Nordeste 10 Sudoeste 0 -- -- 97
2019-07-15 08:00:00 16.4 3 Noroeste 12 Noroeste 0 -- -- 99
2019-07-15 07:00:00 16.3 5 Norte 14 Noroeste 0 -- -- 99
2019-07-15 06:00:00 16.3 5 Oeste 16 Noroeste 0 -- -- 99
2019-07-15 05:00:00 15.9 6 Noroeste 15 Oeste 0 -- -- 100
2019-07-15 04:00:00 16 6 Oeste 14 Noroeste 0 -- -- 100
2019-07-15 03:00:00 16.1 8 Noroeste 20 Noroeste 0 -- -- 100
2019-07-15 02:00:00 16.2 8 Noroeste 20 Oeste 0 -- -- 100
2019-07-15 01:00:00 16.5 10 Noroeste 22 Oeste 0 -- -- 99
2019-07-15 00:00:00 16.4 8 Oeste 27 Oeste 0 -- -- 99
2019-07-14 23:00:00 16.4 6 Sudoeste 21 Noroeste 0 -- -- 99
2019-07-14 22:00:00 16.6 8 Noroeste 18 Norte 0 -- -- 100
2019-07-14 21:00:00 16.7 8 Noroeste 18 Noroeste 0 -- -- 99
2019-07-14 20:00:00 17.4 9 Noroeste 23 Noroeste 0 -- -- 96
2019-07-14 19:00:00 19.6 10 Noroeste 18 Noroeste 0 -- -- 88
2019-07-14 18:00:00 19 9 Noroeste 19 Noroeste 0 -- -- 94
2019-07-14 17:00:00 19.4 10 Norte 19 Norte 0 -- -- 97
2019-07-14 16:00:00 19.4 9 Norte 22 Noroeste 0 -- -- 96
2019-07-14 15:00:00 22.4 12 Noroeste 20 Noroeste 0 -- -- 78
2019-07-14 14:00:00 22.2 13 Noroeste 26 Norte 0 -- -- 82
2019-07-14 13:00:00 22.3 12 Norte 24 Norte 0 -- -- 79
2019-07-14 12:00:00 21.3 11 Norte 36 Noroeste 0 -- -- 88
2019-07-14 11:00:00 22 17 Noroeste 27 Noroeste 0 -- -- 80
2019-07-14 10:00:00 20.3 13 Noroeste 27 Noroeste 0 -- -- 87
2019-07-14 09:00:00 17.2 14 Noroeste 26 Noroeste 0 -- -- 97
2019-07-14 08:00:00 13.6 0 Calma 10 Noroeste 0 -- -- 100
2019-07-14 07:00:00 13.1 2 Sudoeste 15 Noroeste 0 -- -- 100
2019-07-14 06:00:00 14.3 5 Noroeste 17 Noroeste 0 -- -- 100
2019-07-14 05:00:00 13.8 3 Noroeste 17 Noroeste 0 -- -- 99
2019-07-14 04:00:00 15.2 4 Noroeste 13 Norte 0 -- -- 98
2019-07-14 03:00:00 12.8 3 Noroeste 8 Oeste 0 -- -- 99
2019-07-14 02:00:00 14.2 3 Noroeste 17 Noroeste 0 -- -- 97
2019-07-14 01:00:00 16.5 4 Oeste 14 Oeste 0 -- -- 98
2019-07-14 00:00:00 16.5 4 Noroeste 9 Noroeste 0 -- -- 98
2019-07-13 23:00:00 16.5 7 Oeste 15 Noroeste 0 -- -- 97
2019-07-13 22:00:00 16.3 5 Noroeste 17 Noroeste 0 -- -- 97
2019-07-13 21:00:00 16.2 10 Noroeste 19 Norte 0 -- -- 95
2019-07-13 20:00:00 17.4 10 Noroeste 21 Noroeste 0 -- -- 92
2019-07-13 19:00:00 20.8 12 Norte 22 Norte 0 -- -- 79
2019-07-13 18:00:00 22.3 10 Norte 20 Norte 0 -- -- 73
2019-07-13 17:00:00 24.7 10 Norte 20 Norte 0 -- -- 64
2019-07-13 16:00:00 23.9 11 Norte 19 Nordeste 0 -- -- 69
2019-07-13 15:00:00 24.8 8 Nordeste 15 Norte 0 -- -- 64
2019-07-13 14:00:00 24.8 10 Nordeste 17 Nordeste 0 -- -- 67
2019-07-13 13:00:00 23.4 7 Nordeste 18 Nordeste 0 -- -- 69
2019-07-13 12:00:00 23.1 6 Nordeste 17 Nordeste 0 -- -- 72
2019-07-13 11:00:00 21.6 8 Nordeste 14 Este 0 -- -- 76
2019-07-13 10:00:00 20.3 6 Norte 13 Norte 0 -- -- 81
2019-07-13 09:00:00 19 4 Norte 9 Norte 0 -- -- 84
2019-07-13 08:00:00 14.3 3 Noroeste 9 Noroeste 0 -- -- 100
2019-07-13 07:00:00 13.3 6 Noroeste 10 Norte 0 -- -- 94
2019-07-13 06:00:00 15 5 Sudoeste 9 Oeste 0 -- -- 63
2019-07-13 05:00:00 13.9 6 Oeste 12 Oeste 0 -- -- 70
2019-07-13 04:00:00 14.8 3 Sudoeste 10 Oeste 0 -- -- 68
2019-07-13 03:00:00 12.7 5 Oeste 9 Noroeste 0 -- -- 89
2019-07-13 02:00:00 12.8 2 Oeste 9 Oeste 0 -- -- 91
2019-07-13 01:00:00 13 6 Oeste 14 Oeste 0 -- -- 96
2019-07-13 00:00:00 14.7 4 Noroeste 8 Oeste 0 -- -- 99
2019-07-12 23:00:00 16 3 Noroeste 6 Norte 0 -- -- 96
2019-07-12 22:00:00 16.2 4 Noroeste 12 Noroeste 0 -- -- 96
2019-07-12 21:00:00 15.9 7 Norte 12 Noroeste 0 -- -- 96
2019-07-12 20:00:00 17.5 4 Norte 12 Nordeste 0 -- -- 84
2019-07-12 19:00:00 20.9 7 Nordeste 17 Este 0 -- -- 70
2019-07-12 18:00:00 21.9 7 Norte 21 Norte 0 -- -- 67
2019-07-12 17:00:00 22.5 9 Norte 20 Nordeste 0 -- -- 68
2019-07-12 16:00:00 21.6 10 Norte 23 Norte 0 -- -- 75
2019-07-12 15:00:00 21.9 11 Norte 25 Norte 0 -- -- 77
2019-07-12 14:00:00 21.9 12 Norte 25 Norte 0 -- -- 73
2019-07-12 13:00:00 21.6 11 Norte 23 Norte 0 -- -- 74
2019-07-12 12:00:00 21.3 10 Norte 20 Norte 0 -- -- 76
2019-07-12 11:00:00 21.4 11 Norte -- -- -- -- -- 73
2019-07-12 10:00:00 -- -- -- -- -- -- -- -- --
2019-07-12 09:00:00 19.2 9 Noroeste 15 Norte 0 -- -- 73
2019-07-12 08:00:00 16.5 7 Noroeste 13 Oeste 0 -- -- 88
2019-07-12 07:00:00 14.1 5 Oeste 9 Oeste 0 -- -- 95
2019-07-12 06:00:00 14.8 5 Noroeste 13 Noroeste 0 -- -- 98
2019-07-12 05:00:00 13.7 5 Oeste 15 Noroeste 0 -- -- 98
2019-07-12 04:00:00 15 5 Noroeste 12 Noroeste 0 -- -- 96
2019-07-12 03:00:00 15.1 6 Oeste 14 Noroeste 0 -- -- 97
2019-07-12 02:00:00 15.4 8 Noroeste 19 Oeste 0 -- -- 96
2019-07-12 01:00:00 14.9 4 Oeste 13 Noroeste 0 -- -- 98
2019-07-12 00:00:00 15 4 Noroeste 15 Noroeste 0 -- -- 97
2019-07-11 23:00:00 15.8 5 Noroeste 12 Norte 0 -- -- 95
2019-07-11 22:00:00 15.3 6 Oeste 14 Noroeste 0 -- -- 95
2019-07-11 21:00:00 15.6 7 Noroeste 16 Noroeste 0 -- -- 91
2019-07-11 20:00:00 17.1 7 Norte 15 Noroeste 0 -- -- 91
2019-07-11 19:00:00 19.4 6 Norte 22 Norte 0 -- -- 75
2019-07-11 18:00:00 19.4 11 Norte 23 Norte 0 -- -- 81
2019-07-11 17:00:00 20.8 13 Norte 28 Noroeste 0 -- -- 72
2019-07-11 16:00:00 21.9 11 Norte 25 Noroeste 0 -- -- 63
2019-07-11 15:00:00 21.1 13 Norte 27 Norte 0 -- -- 67
2019-07-11 14:00:00 20.3 10 Norte 26 Norte 0 -- -- 73
2019-07-11 13:00:00 20 13 Norte 22 Norte 0 -- -- 77
2019-07-11 12:00:00 20.2 11 Noroeste 20 Noroeste 0 -- -- 76
2019-07-11 11:00:00 18.7 12 Noroeste 25 Norte 0 -- -- 77
2019-07-11 10:00:00 18.8 9 Noroeste 24 Norte 0 -- -- 80
2019-07-11 09:00:00 16.9 9 Noroeste 19 Noroeste 0 -- -- 89
2019-07-11 08:00:00 15 8 Oeste 18 Oeste 0 -- -- 95
2019-07-11 07:00:00 14.5 4 Sudoeste 21 Noroeste 0 -- -- 97
2019-07-11 06:00:00 14.7 10 Noroeste 26 Norte 0 -- -- 99
2019-07-11 05:00:00 15 6 Noroeste 22 Noroeste 0 -- -- 98
2019-07-11 04:00:00 15 6 Noroeste 19 Norte 0 -- -- 98
2019-07-11 03:00:00 15.2 7 Noroeste 17 Norte 0 -- -- 99
2019-07-11 02:00:00 15.1 6 Noroeste 19 Noroeste 0 -- -- 100
2019-07-11 01:00:00 15.2 4 Norte 19 Noroeste 0 -- -- 100
2019-07-11 00:00:00 15.1 8 Noroeste 24 Oeste 0 -- -- 100
2019-07-10 23:00:00 15.2 8 Noroeste 20 Norte 0.2 -- -- 100
2019-07-10 22:00:00 16 9 Noroeste 22 Noroeste 0 -- -- 97
2019-07-10 21:00:00 16 6 Noroeste 22 Norte 0 -- -- 92
2019-07-10 20:00:00 16.6 12 Norte 27 Norte 0 -- -- 88
2019-07-10 19:00:00 17.4 12 Norte 28 Norte 0 -- -- 86
2019-07-10 18:00:00 19.1 15 Norte 26 Norte 0 -- -- 77
2019-07-10 17:00:00 21.4 11 Norte 25 Noroeste 0 -- -- 65
2019-07-10 16:00:00 20.8 13 Norte 30 Noroeste 0 -- -- 71
2019-07-10 15:00:00 21.4 14 Noroeste 31 Noroeste 0 -- -- 68
2019-07-10 14:00:00 21.3 14 Norte 28 Norte 0 -- -- 62
2019-07-10 13:00:00 21.6 13 Norte 30 Noroeste 0 -- -- 61
2019-07-10 12:00:00 19.8 12 Norte 24 Noroeste 0 -- -- 72
2019-07-10 11:00:00 19.4 12 Norte 24 Noroeste 0 -- -- 77
2019-07-10 10:00:00 19.1 10 Noroeste 23 Noroeste 0 -- -- 78
2019-07-10 09:00:00 16 10 Noroeste 24 Noroeste 0 -- -- 95
2019-07-10 08:00:00 15.1 9 Noroeste 22 Oeste 0 -- -- 96
2019-07-10 07:00:00 15 8 Noroeste 26 Noroeste 0 -- -- 98
2019-07-10 06:00:00 15.7 10 Noroeste 24 Noroeste 0 -- -- 96
2019-07-10 05:00:00 15.3 9 Oeste 22 Noroeste 0 -- -- 95
2019-07-10 04:00:00 15.1 8 Noroeste 21 Norte 0 -- -- 96
2019-07-10 03:00:00 15.3 7 Noroeste 19 Noroeste 0 -- -- 97
2019-07-10 02:00:00 15.2 7 Noroeste 19 Noroeste 0 -- -- 95
2019-07-10 01:00:00 15.3 8 Noroeste 20 Oeste 0 -- -- 94
2019-07-10 00:00:00 15.4 7 Noroeste 22 Noroeste 0 -- -- 95
2019-07-09 23:00:00 15.7 9 Noroeste 25 Norte 0 -- -- 96
2019-07-09 22:00:00 15.8 10 Noroeste 25 Noroeste 0 -- -- 97
2019-07-09 21:00:00 16 10 Noroeste 23 Noroeste 0 -- -- 95
2019-07-09 20:00:00 16.7 10 Noroeste 22 Noroeste 0 -- -- 89
2019-07-09 19:00:00 17.4 10 Norte 24 Noroeste 0 -- -- 86
2019-07-09 18:00:00 18 9 Norte 22 Noroeste 0 -- -- 86
2019-07-09 17:00:00 20 12 Norte 23 Norte 0 -- -- 73
2019-07-09 16:00:00 19.9 11 Norte 26 Norte 0 -- -- 78
2019-07-09 15:00:00 20.2 7 Norte 24 Nordeste 0 -- -- 71
2019-07-09 14:00:00 20.8 14 Norte 26 Norte 0 -- -- 66
2019-07-09 13:00:00 21.5 12 Norte 26 Norte 0 -- -- 63
2019-07-09 12:00:00 19 11 Norte 23 Norte 0 -- -- 79
2019-07-09 11:00:00 18.5 11 Norte 19 Norte 0 -- -- 82
2019-07-09 10:00:00 16.2 9 Norte 24 Norte 0 -- -- 97
2019-07-09 09:00:00 16 9 Noroeste 19 Oeste 0 -- -- 93
2019-07-09 08:00:00 14.9 8 Noroeste 18 Oeste 0 -- -- 96
2019-07-09 07:00:00 14.7 7 Noroeste 17 Norte 0 -- -- 99
2019-07-09 06:00:00 15.2 8 Norte 15 Nordeste 0 -- -- 99
2019-07-09 05:00:00 15.4 3 Oeste 10 Noroeste 0 -- -- 93
2019-07-09 04:00:00 15.2 7 Noroeste 15 Norte 0 -- -- 95
2019-07-09 03:00:00 15.4 8 Norte 15 Noroeste 0 -- -- 97
2019-07-09 02:00:00 16 6 Noroeste 14 Noroeste 0 -- -- 92
2019-07-09 01:00:00 15 4 Oeste 12 Noroeste 0 -- -- 98
2019-07-09 00:00:00 15.3 3 Norte 17 Oeste 0 -- -- 97
2019-07-08 23:00:00 14.9 4 Noroeste 13 Norte 0 -- -- 98
2019-07-08 22:00:00 15.6 6 Norte 18 Oeste 0 -- -- 96
2019-07-08 21:00:00 15.9 5 Norte 17 Noroeste 0 -- -- 93
2019-07-08 20:00:00 16.8 5 Noroeste 15 Norte 0 -- -- 88
2019-07-08 19:00:00 19.3 10 Norte 20 Nordeste 0 -- -- 76
2019-07-08 18:00:00 19.9 9 Norte 24 Norte 0 -- -- 77
2019-07-08 17:00:00 21.5 10 Norte 24 Nordeste 0 -- -- 69
2019-07-08 16:00:00 21 12 Norte 24 Nordeste 0 -- -- 70
2019-07-08 15:00:00 20 4 Norte 26 Norte 0 -- -- 74
2019-07-08 14:00:00 21 13 Norte 23 Nordeste 0 -- -- 70
2019-07-08 13:00:00 20.1 9 Nordeste 21 Nordeste 0 -- -- 71
2019-07-08 12:00:00 20.4 9 Norte 21 Este 0 -- -- 73
2019-07-08 11:00:00 18.5 6 Nordeste 16 Nordeste 0 -- -- 82
2019-07-08 10:00:00 17.8 6 Norte 15 Norte 0 -- -- 89
2019-07-08 09:00:00 16.1 6 Norte 17 Norte 0 -- -- 95
2019-07-08 08:00:00 15.2 8 Norte 17 Nordeste 0 -- -- 100
2019-07-08 07:00:00 15.2 8 Norte 16 Norte 0 -- -- 99
2019-07-08 06:00:00 14.1 3 Oeste 6 Sudoeste 0 -- -- 99
2019-07-08 05:00:00 14.4 4 Noroeste 13 Norte 0 -- -- 99
2019-07-08 04:00:00 14.3 5 Noroeste 12 Norte 0 -- -- 100
2019-07-08 03:00:00 15 8 Norte 15 Norte 0 -- -- 99
2019-07-08 02:00:00 15.1 5 Noroeste 19 Noroeste 0 -- -- 99
2019-07-08 01:00:00 15.3 8 Norte 22 Noroeste 0 -- -- 99
2019-07-08 00:00:00 15.3 5 Noroeste 15 Oeste 0 -- -- 98
2019-07-07 23:00:00 15.3 8 Noroeste 15 Noroeste 0 -- -- 98
2019-07-07 22:00:00 15.7 9 Norte 18 Norte 0 -- -- 97
2019-07-07 21:00:00 15.9 8 Noroeste 16 Norte 0 -- -- 95
2019-07-07 20:00:00 16.6 6 Norte 19 Norte 0 -- -- 91
2019-07-07 19:00:00 18.7 9 Noroeste 19 Nordeste 0 -- -- 81
2019-07-07 18:00:00 20.1 11 Norte 20 Norte 0 -- -- 76
2019-07-07 17:00:00 19.7 10 Nordeste 21 Norte 0 -- -- 80
2019-07-07 16:00:00 19.2 10 Nordeste 19 Nordeste 0 -- -- 86
2019-07-07 15:00:00 19.3 10 Nordeste 20 Nordeste 0 -- -- 85
2019-07-07 14:00:00 19.4 10 Nordeste 21 Norte 0 -- -- 83
2019-07-07 13:00:00 19.5 10 Norte 21 Nordeste 0 -- -- 81
2019-07-07 12:00:00 20.4 11 Nordeste 19 Nordeste 0 -- -- 74
2019-07-07 11:00:00 20.6 7 Nordeste 16 Nordeste 0 -- -- 74
2019-07-07 10:00:00 17.8 7 Norte 18 Nordeste 0 -- -- 84
2019-07-07 09:00:00 16.6 5 Noroeste 13 Noroeste 0 -- -- 90
2019-07-07 08:00:00 14.9 7 Noroeste 17 Norte 0 -- -- 100
2019-07-07 07:00:00 15 6 Norte 18 Norte 0 -- -- 100
2019-07-07 06:00:00 14.9 6 Noroeste 16 Norte 0 -- -- 99
2019-07-07 05:00:00 15 5 Noroeste 16 Noroeste 0 -- -- 99
2019-07-07 04:00:00 14.7 7 Noroeste 14 Noroeste 0 -- -- 99
2019-07-07 03:00:00 14.3 6 Noroeste 13 Noroeste 0 -- -- 99
2019-07-07 02:00:00 15 6 Norte 18 Norte 0 -- -- 99
2019-07-07 01:00:00 15.5 7 Noroeste 14 Noroeste 0 -- -- 98
2019-07-07 00:00:00 15.1 6 Noroeste 18 Noroeste 0 -- -- 96
2019-07-06 23:00:00 15.6 7 Noroeste 21 Oeste 0 -- -- 95
2019-07-06 22:00:00 15.4 0 Calma 15 Noroeste 0 -- -- 94
2019-07-06 21:00:00 15.7 10 Noroeste 15 Noroeste 0 -- -- 94
2019-07-06 20:00:00 16.7 10 Norte 20 Noroeste 0 -- -- 89
2019-07-06 19:00:00 17.8 8 Norte 21 Noroeste 0 -- -- 82
2019-07-06 18:00:00 20.9 8 Norte 22 Nordeste 0 -- -- 67
2019-07-06 17:00:00 19.7 10 Norte 21 Norte 0 -- -- 75
2019-07-06 16:00:00 20.3 9 Norte 19 Nordeste 0 -- -- 75
2019-07-06 15:00:00 18.5 10 Norte 24 Norte 0 -- -- 82
2019-07-06 14:00:00 20.6 10 Norte 21 Norte 0 -- -- 77
2019-07-06 13:00:00 17.7 9 Norte 15 Norte 0 -- -- 94
2019-07-06 12:00:00 16.5 7 Nordeste 17 Norte 0.2 -- -- 100
2019-07-06 11:00:00 16.2 8 Norte 17 Norte 0 -- -- 100
2019-07-06 10:00:00 16.3 6 Nordeste 11 Nordeste 0 -- -- 100
2019-07-06 09:00:00 15.8 2 Noroeste 14 Norte 0 -- -- 100
2019-07-06 08:00:00 15.4 7 Norte 17 Nordeste 0.2 -- -- 100
2019-07-06 07:00:00 15.5 8 Norte 17 Norte 0 -- -- 100
2019-07-06 06:00:00 15.5 5 Noroeste 17 Oeste 0 -- -- 98
2019-07-06 05:00:00 15.7 5 Oeste 15 Oeste 0 -- -- 97
2019-07-06 04:00:00 15.6 5 Oeste 14 Noroeste 0 -- -- 98
2019-07-06 03:00:00 14.5 8 Noroeste 17 Noroeste 0 -- -- 98
2019-07-06 02:00:00 14.1 5 Noroeste 14 Noroeste 0 -- -- 99
2019-07-06 01:00:00 14.7 7 Noroeste 19 Noroeste 0 -- -- 97
2019-07-06 00:00:00 13.3 6 Oeste 9 Noroeste 0 -- -- 100
2019-07-05 23:00:00 13.4 5 Oeste 10 Noroeste 0 -- -- 99
2019-07-05 22:00:00 13.3 6 Oeste 10 Oeste 0 -- -- 98
2019-07-05 21:00:00 14.2 5 Oeste 9 Noroeste 0 -- -- 94
2019-07-05 20:00:00 16.8 4 Noroeste 10 Noroeste 0 -- -- 86
2019-07-05 19:00:00 19.5 6 Norte 16 Norte 0 -- -- 80
2019-07-05 18:00:00 20.7 9 Norte 19 Norte 0 -- -- 75
2019-07-05 17:00:00 20.6 8 Nordeste 21 Norte 0 -- -- 78
2019-07-05 16:00:00 20 6 Nordeste 20 Norte 0 -- -- 79
2019-07-05 15:00:00 20.7 10 Nordeste 21 Nordeste 0 -- -- 78
2019-07-05 14:00:00 20.3 7 Norte 19 Nordeste 0 -- -- 77
2019-07-05 13:00:00 20.5 9 Nordeste 17 Este 0 -- -- 78
2019-07-05 12:00:00 19 7 Norte 14 Norte 0 -- -- 86
2019-07-05 11:00:00 18.6 5 Nordeste 14 Nordeste 0 -- -- 83
2019-07-05 10:00:00 16.7 3 Norte 10 Norte 0 -- -- 92
2019-07-05 09:00:00 15.8 3 Norte 8 Sudeste 0 -- -- 99
2019-07-05 08:00:00 15.1 0 Calma 6 Nordeste 0 -- -- 100
2019-07-05 07:00:00 14.7 3 Noroeste 12 Oeste 0 -- -- 100
2019-07-05 06:00:00 14.5 4 Sudoeste 14 Oeste 0 -- -- 100
2019-07-05 05:00:00 14.1 3 Oeste 9 Oeste 0 -- -- 100
2019-07-05 04:00:00 13 4 Oeste 10 Oeste 0 -- -- 100
2019-07-05 03:00:00 14.3 4 Oeste 8 Noroeste 0 -- -- 100
2019-07-05 02:00:00 12.9 5 Oeste 10 Oeste 0 -- -- 100
2019-07-05 01:00:00 12.2 4 Oeste 12 Oeste 0 -- -- 100
2019-07-05 00:00:00 13 6 Oeste 17 Noroeste 0 -- -- 98
2019-07-04 23:00:00 13.5 6 Noroeste 13 Noroeste 0 -- -- 100
2019-07-04 22:00:00 13.9 4 Oeste 11 Noroeste 0 -- -- 99
2019-07-04 21:00:00 14.6 6 Noroeste 10 Norte 0 -- -- 96
2019-07-04 20:00:00 16.7 4 Noroeste 18 Norte 0 -- -- 90
2019-07-04 19:00:00 19.4 10 Norte 16 Norte 0 -- -- 74
2019-07-04 18:00:00 18.4 8 Norte 18 Nordeste 0 -- -- 80
2019-07-04 17:00:00 18.7 8 Nordeste 20 Nordeste 0 -- -- 79
2019-07-04 16:00:00 19.1 8 Norte 17 Nordeste 0 -- -- 78
2019-07-04 15:00:00 18.9 10 Norte 15 Norte 0 -- -- 88
2019-07-04 14:00:00 17.3 8 Nordeste 15 Nordeste 0 -- -- 90
2019-07-04 13:00:00 17.4 7 Norte 17 Norte 0 -- -- 89
2019-07-04 12:00:00 16.3 7 Norte 17 Norte 0 -- -- 97
2019-07-04 11:00:00 15.3 8 Norte 17 Norte 0 -- -- 100
2019-07-04 10:00:00 14.7 6 Noroeste 21 Norte 0 -- -- 100
2019-07-04 09:00:00 14.5 5 Norte 13 Noroeste 0.2 -- -- 100
2019-07-04 08:00:00 14.3 9 Norte 17 Norte 0.6 -- -- 100
2019-07-04 07:00:00 14.4 4 Norte 13 Norte 0 -- -- 100
2019-07-04 06:00:00 14.6 6 Noroeste 14 Oeste 0.2 -- -- 98
2019-07-04 05:00:00 14.5 7 Noroeste 14 Oeste 0 -- -- 95
2019-07-04 04:00:00 14.2 6 Oeste 10 Noroeste 0 -- -- 95
2019-07-04 03:00:00 14.5 4 Noroeste 12 Norte 0 -- -- 96
2019-07-04 02:00:00 14.9 7 Norte 15 Noroeste 0 -- -- 96
2019-07-04 01:00:00 14.7 6 Noroeste 14 Norte 0 -- -- 97
2019-07-04 00:00:00 14.5 2 Noroeste 14 Norte 0 -- -- 97
2019-07-03 23:00:00 15 5 Norte 18 Norte 0 -- -- 97
2019-07-03 22:00:00 15.2 5 Norte 15 Norte 0 -- -- 96
2019-07-03 21:00:00 15.4 8 Norte 15 Norte 0 -- -- 94
2019-07-03 20:00:00 16.1 8 Norte 15 Noroeste 0 -- -- 88
2019-07-03 19:00:00 17 6 Norte 19 Norte 0 -- -- 85
2019-07-03 18:00:00 17.9 10 Norte 22 Norte 0 -- -- 81
2019-07-03 17:00:00 17.2 13 Norte 25 Norte 0 -- -- 86
2019-07-03 16:00:00 18.9 6 Norte 22 Noroeste 0 -- -- 76
2019-07-03 15:00:00 18.6 12 Norte 24 Norte 0 -- -- 76
2019-07-03 14:00:00 20.3 11 Norte 22 Norte 0 -- -- 68
2019-07-03 13:00:00 20 9 Nordeste 21 Nordeste 0 -- -- 67
2019-07-03 12:00:00 19.2 10 Norte 26 Norte 0 -- -- 74
2019-07-03 11:00:00 16.9 12 Norte 24 Norte 0 -- -- 89
2019-07-03 10:00:00 14.8 10 Norte 19 Norte 0 -- -- 100
2019-07-03 09:00:00 14.6 6 Norte 16 Oeste 0 -- -- 99
2019-07-03 08:00:00 14 4 Noroeste 21 Noroeste 0 -- -- 100
2019-07-03 07:00:00 14.2 7 Noroeste 16 Norte 0 -- -- 100
2019-07-03 06:00:00 14.3 8 Noroeste 19 Norte 0.4 -- -- 100
2019-07-03 05:00:00 14.6 5 Norte 14 Norte 0 -- -- 97
2019-07-03 04:00:00 14.8 7 Norte 13 Norte 0 -- -- 96
2019-07-03 03:00:00 14.7 3 Oeste 13 Norte 0 -- -- 93
2019-07-03 02:00:00 14.7 7 Norte 16 Norte 0 -- -- 93
2019-07-03 01:00:00 14.8 8 Norte 16 Norte 0 -- -- 97
2019-07-03 00:00:00 14.8 6 Noroeste 17 Norte 0 -- -- 96
2019-07-02 23:00:00 14.8 6 Norte 16 Nordeste 0 -- -- 96
2019-07-02 22:00:00 15.1 8 Norte 15 Norte -- -- -- 95
2019-07-02 21:00:00 15.4 8 Norte 17 Noroeste 0 -- -- 93
2019-07-02 20:00:00 15.6 9 Norte 17 Norte 0 -- -- 93
2019-07-02 19:00:00 16.4 6 Nordeste 19 Norte 0 -- -- 86
2019-07-02 18:00:00 16.7 12 Norte 22 Norte 0 -- -- 84
2019-07-02 17:00:00 17.7 9 Norte 18 Norte 0 -- -- 84
2019-07-02 16:00:00 19.4 9 Nordeste 22 Norte 0 -- -- 75
2019-07-02 15:00:00 18.5 9 Nordeste 19 Norte 0 -- -- 79
2019-07-02 14:00:00 17.9 10 Norte 21 Norte 0 -- -- 81
2019-07-02 13:00:00 16.5 10 Norte 19 Norte 0 -- -- 89
2019-07-02 12:00:00 16.8 10 Nordeste 22 Norte 0 -- -- 86
2019-07-02 11:00:00 16.1 7 Norte 14 Norte 0 -- -- 92
2019-07-02 10:00:00 15.3 10 Norte 17 Nordeste 0 -- -- 95
2019-07-02 09:00:00 14.9 5 Norte 15 Norte 0 -- -- 98
2019-07-02 08:00:00 14.5 5 Norte 12 Norte 0 -- -- 99
2019-07-02 07:00:00 14.5 5 Noroeste 13 Norte 0 -- -- 97
2019-07-02 06:00:00 14.4 5 Noroeste 14 Noroeste 0 -- -- 97
2019-07-02 05:00:00 14.4 5 Norte 17 Norte 0 -- -- 99
2019-07-02 04:00:00 14.7 8 Norte 19 Norte 0 -- -- 100
2019-07-02 03:00:00 15.4 8 Norte 17 Norte 0 -- -- 97
2019-07-02 02:00:00 15.1 7 Norte 16 Noroeste 0 -- -- 96
2019-07-02 01:00:00 15.5 8 Norte 15 Norte 0 -- -- 97
2019-07-02 00:00:00 15.5 4 Norte 13 Norte 0 -- -- 96
2019-07-01 23:00:00 15.4 4 Norte 16 Norte 0 -- -- 95
2019-07-01 22:00:00 15.4 6 Nordeste 14 Nordeste 0 -- -- 95
2019-07-01 21:00:00 15.7 3 Sudeste 15 Norte 0 -- -- 90
2019-07-01 20:00:00 16.3 9 Norte 17 Nordeste 0 -- -- 89
2019-07-01 19:00:00 16.8 8 Norte 18 Norte 0 -- -- 89
2019-07-01 18:00:00 17.6 9 Norte 22 Norte 0 -- -- 82
2019-07-01 17:00:00 19.9 9 Norte 21 Norte 0 -- -- 75
2019-07-01 16:00:00 18.4 8 Norte 26 Norte 0 -- -- 80
2019-07-01 15:00:00 21 13 Norte 24 Nordeste 0 -- -- 72
2019-07-01 14:00:00 20.8 12 Norte 25 Nordeste 0 -- -- 67
2019-07-01 13:00:00 18.6 12 Norte 22 Norte 0 -- -- 79
2019-07-01 12:00:00 20.3 10 Nordeste 20 Norte 0 -- -- 71
2019-07-01 11:00:00 16.8 8 Norte 17 Norte 0 -- -- 88
2019-07-01 10:00:00 17 6 Norte 16 Nordeste 0 -- -- 86
2019-07-01 09:00:00 16.5 6 Norte 15 Norte 0 -- -- 91
2019-07-01 08:00:00 14.6 3 Norte 15 Norte 0 -- -- 100
2019-07-01 07:00:00 14.6 8 Norte 16 Norte 0 -- -- 100
2019-07-01 06:00:00 14.6 5 Norte 15 Norte 0 -- -- 100
2019-07-01 05:00:00 14.6 4 Norte 14 Norte 0 -- -- 100
2019-07-01 04:00:00 14.5 7 Nordeste 16 Norte 0 -- -- 99
2019-07-01 03:00:00 14.6 4 Norte 11 Noroeste 0 -- -- 99
2019-07-01 02:00:00 13.9 3 Noroeste 9 Noroeste 0 -- -- 98
2019-07-01 01:00:00 13.2 4 Oeste 15 Norte 0 -- -- 97
2019-07-01 00:00:00 15.3 5 Norte 12 Nordeste 0 -- -- 97
2019-06-30 23:00:00 15 5 Norte 9 Norte 0 -- -- 95
2019-06-30 22:00:00 14 5 Oeste 9 Oeste 0 -- -- 94
2019-06-30 21:00:00 15.4 2 Norte 12 Nordeste 0 -- -- 90
2019-06-30 20:00:00 16.7 7 Norte 17 Norte 0 -- -- 83
2019-06-30 19:00:00 19.7 11 Norte 24 Norte 0 -- -- 71
2019-06-30 18:00:00 19.9 12 Nordeste 22 Nordeste 0 -- -- 69
2019-06-30 17:00:00 18.3 9 Norte 23 Norte 0 -- -- 72
2019-06-30 16:00:00 20.3 12 Nordeste 24 Norte 0 -- -- 66
2019-06-30 15:00:00 18.3 9 Norte 22 Norte 0 -- -- 78
2019-06-30 14:00:00 19 9 Norte 21 Norte 0 -- -- 77
2019-06-30 13:00:00 19.3 10 Nordeste 23 Nordeste 0 -- -- 72
2019-06-30 12:00:00 19.8 10 Nordeste 23 Norte 0 -- -- 71
2019-06-30 11:00:00 18 11 Norte 21 Nordeste 0 -- -- 77
2019-06-30 10:00:00 17.3 7 Nordeste 15 Norte 0 -- -- 80
2019-06-30 09:00:00 16.4 6 Nordeste 14 Este 0 -- -- 89
2019-06-30 08:00:00 14.6 3 Noroeste 10 Noroeste 0 -- -- 98
2019-06-30 07:00:00 14.4 4 Norte 10 Norte 0 -- -- 100
2019-06-30 06:00:00 13.8 2 Oeste 8 Norte 0 -- -- 100
2019-06-30 05:00:00 14.7 4 Norte 16 Norte 0 -- -- 100
2019-06-30 04:00:00 15.1 6 Nordeste 16 Norte 0 -- -- 100
2019-06-30 03:00:00 15 9 Norte 19 Norte 0 -- -- 100
2019-06-30 02:00:00 15.2 5 Norte 14 Norte 0 -- -- 100
2019-06-30 01:00:00 15.3 0 Calma 13 Noroeste 0 -- -- 98
2019-06-30 00:00:00 14.8 0 Calma 14 Norte 0 -- -- 98
2019-06-29 23:00:00 14.3 3 Noroeste 10 Noroeste 0 -- -- 97
2019-06-29 22:00:00 14.7 3 Noroeste 11 Norte 0 -- -- 95
2019-06-29 21:00:00 14.6 6 Noroeste 12 Norte 0 -- -- 89
2019-06-29 20:00:00 16.6 3 Norte 16 Norte 0 -- -- 76
2019-06-29 19:00:00 17.5 6 Norte 18 Norte 0 -- -- 74
2019-06-29 18:00:00 20.3 10 Norte 25 Norte 0 -- -- 64
2019-06-29 17:00:00 19.4 10 Norte 24 Norte 0 -- -- 72
2019-06-29 16:00:00 20.5 14 Norte 23 Norte 0 -- -- 70
2019-06-29 15:00:00 19.2 9 Nordeste 23 Nordeste 0 -- -- 71
2019-06-29 14:00:00 20.1 10 Nordeste 24 Nordeste 0 -- -- 68
2019-06-29 13:00:00 20 10 Nordeste 24 Nordeste 0 -- -- 63
2019-06-29 12:00:00 20 5 Norte 20 Norte 0 -- -- 67
2019-06-29 11:00:00 20.9 8 Nordeste 20 Norte 0 -- -- 61
2019-06-29 10:00:00 19.9 7 Nordeste 14 Nordeste 0 -- -- 70
2019-06-29 09:00:00 18.4 4 Norte 8 Norte 0 -- -- 77
2019-06-29 08:00:00 14.2 3 Oeste 10 Oeste 0 -- -- 99
2019-06-29 07:00:00 12.6 4 Oeste 9 Oeste 0 -- -- 100
2019-06-29 06:00:00 14.1 3 Noroeste 8 Norte 0 -- -- 99
2019-06-29 05:00:00 14.1 3 Noroeste 8 Noroeste 0 -- -- 97
2019-06-29 04:00:00 13.6 5 Oeste 10 Oeste 0 -- -- 97
2019-06-29 03:00:00 13.3 4 Oeste 12 Noroeste 0 -- -- 97
2019-06-29 02:00:00 13.9 4 Oeste 12 Oeste 0 -- -- 97
2019-06-29 01:00:00 14 4 Noroeste 12 Noroeste 0 -- -- 99
2019-06-29 00:00:00 13.8 6 Oeste 12 Noroeste 0 -- -- 98
2019-06-28 23:00:00 14.6 6 Noroeste 17 Noroeste 0 -- -- 96
2019-06-28 22:00:00 15.1 8 Noroeste 22 Noroeste 0 -- -- 96
2019-06-28 21:00:00 15.5 4 Noroeste 16 Norte 0 -- -- 91
2019-06-28 20:00:00 16.6 8 Norte 23 Noroeste 0 -- -- 84
2019-06-28 19:00:00 17.9 10 Norte 22 Norte 0 -- -- 79
2019-06-28 18:00:00 19.5 12 Norte 21 Norte 0 -- -- 70
2019-06-28 17:00:00 17.6 9 Norte 22 Norte 0 -- -- 83
2019-06-28 16:00:00 19 12 Norte 24 Norte 0 -- -- 75
2019-06-28 15:00:00 18.3 8 Norte 25 Norte 0 -- -- 80
2019-06-28 14:00:00 20.1 14 Norte 27 Norte 0 -- -- 69
2019-06-28 13:00:00 20.8 12 Norte 24 Norte 0 -- -- 70
2019-06-28 12:00:00 18.8 9 Norte 23 Norte 0 -- -- 74
2019-06-28 11:00:00 19.8 8 Noroeste 20 Norte 0 -- -- 73
2019-06-28 10:00:00 17 12 Norte 24 Norte 0 -- -- 86
2019-06-28 09:00:00 15.2 7 Noroeste 15 Norte 0 -- -- 94
2019-06-28 08:00:00 14.6 7 Norte 18 Norte 0 -- -- 98
2019-06-28 07:00:00 14.5 8 Noroeste 19 Noroeste 0 -- -- 99
2019-06-28 06:00:00 14.7 9 Norte 21 Norte 0 -- -- 98
2019-06-28 05:00:00 14.5 7 Oeste 17 Oeste 0 -- -- 94
2019-06-28 04:00:00 13.9 6 Oeste 17 Noroeste 0 -- -- 98
2019-06-28 03:00:00 14.7 6 Noroeste 18 Noroeste 0 -- -- 99
2019-06-28 02:00:00 15 7 Norte 14 Noroeste 0 -- -- 99
2019-06-28 01:00:00 15.1 3 Norte 13 Norte 0 -- -- 99
2019-06-28 00:00:00 15.1 5 Norte 14 Noroeste 0 -- -- 98
2019-06-27 23:00:00 15.3 8 Norte 14 Norte 0 -- -- 97
2019-06-27 22:00:00 15.3 5 Norte 13 Noroeste 0 -- -- 96
2019-06-27 21:00:00 16.1 7 Norte 15 Norte 0 -- -- 93
2019-06-27 20:00:00 17.1 6 Norte 16 Noroeste 0 -- -- 87
2019-06-27 19:00:00 19.5 8 Norte 19 Norte 0 -- -- 73
2019-06-27 18:00:00 18.7 12 Norte 21 Noroeste 0 -- -- 82
2019-06-27 17:00:00 20 14 Norte 24 Norte 0 -- -- 74
2019-06-27 16:00:00 20.9 14 Norte 28 Norte 0 -- -- 64
2019-06-27 15:00:00 21.3 12 Norte 24 Norte 0 -- -- 64
2019-06-27 14:00:00 20.1 11 Norte 24 Nordeste 0 -- -- 68
2019-06-27 13:00:00 19 10 Norte 19 Norte 0 -- -- 81
2019-06-27 12:00:00 17.5 9 Norte 21 Noroeste 0 -- -- 86
2019-06-27 11:00:00 17.7 9 Norte 22 Noroeste 0 -- -- 82
2019-06-27 10:00:00 17.2 9 Norte 21 Norte 0 -- -- 84
2019-06-27 09:00:00 16.8 5 Noroeste 21 Noroeste 0 -- -- 89
2019-06-27 08:00:00 14.7 6 Noroeste 18 Noroeste 0 -- -- 97
2019-06-27 07:00:00 14.6 7 Noroeste 23 Noroeste 0 -- -- 97
2019-06-27 06:00:00 14.7 9 Noroeste 25 Oeste 0 -- -- 96
2019-06-27 05:00:00 14 6 Oeste 14 Noroeste 0 -- -- 96
2019-06-27 04:00:00 14.5 8 Oeste 15 Oeste 0 -- -- 97
2019-06-27 03:00:00 14.3 5 Noroeste 12 Noroeste 0 -- -- 98
2019-06-27 02:00:00 14.9 6 Noroeste 19 Oeste 0 -- -- 97
2019-06-27 01:00:00 14.8 7 Oeste 15 Oeste 0 -- -- 96
2019-06-27 00:00:00 14.7 4 Oeste 16 Oeste 0 -- -- 97
2019-06-26 23:00:00 15.1 6 Oeste 20 Oeste 0 -- -- 96
2019-06-26 22:00:00 14.8 9 Noroeste 20 Norte 0 -- -- 96
2019-06-26 21:00:00 15.2 9 Noroeste 19 Noroeste 0 -- -- 93
2019-06-26 20:00:00 16.4 9 Norte 21 Norte 0 -- -- 88
2019-06-26 19:00:00 17.5 10 Noroeste 24 Norte 0 -- -- 86
2019-06-26 18:00:00 17.5 11 Norte 21 Noroeste 0 -- -- 82
2019-06-26 17:00:00 18.2 10 Norte 25 Norte 0 -- -- 87
2019-06-26 16:00:00 19 7 Norte 23 Norte 0 -- -- 84
2019-06-26 15:00:00 19.5 10 Norte 24 Noroeste 0 -- -- 82
2019-06-26 14:00:00 19.3 12 Norte 23 Norte 0 -- -- 83
2019-06-26 13:00:00 20.4 12 Norte 22 Norte 0.2 -- -- 77
2019-06-26 12:00:00 18.7 8 Norte 17 Norte 0 -- -- 89
2019-06-26 11:00:00 17.4 8 Norte 15 Noroeste 0 -- -- 98
2019-06-26 10:00:00 16.7 6 Norte 12 Norte 0 -- -- 99
2019-06-26 09:00:00 16.9 6 Norte 12 Norte 0 -- -- 93
2019-06-26 08:00:00 17.7 6 Oeste 22 Oeste 0 -- -- 88
2019-06-26 07:00:00 15.5 11 Oeste 23 Sudoeste 0 -- -- 94
2019-06-26 06:00:00 15.2 9 Oeste 23 Oeste 0 -- -- 94
2019-06-26 05:00:00 15.1 12 Oeste 34 Sudoeste 0 -- -- 95
2019-06-26 04:00:00 15.6 11 Noroeste 30 Oeste 0 -- -- 99
2019-06-26 03:00:00 15.6 15 Noroeste 30 Noroeste 0 -- -- 100
2019-06-26 02:00:00 15.8 14 Noroeste 31 Noroeste 0 -- -- 100
2019-06-26 01:00:00 15.9 11 Noroeste 28 Noroeste 0 -- -- 100
2019-06-26 00:00:00 16 13 Noroeste 28 Norte 0.2 -- -- 100
2019-06-25 23:00:00 16.6 10 Noroeste 23 Noroeste 0.2 -- -- 100
2019-06-25 22:00:00 16.7 8 Noroeste 18 Noroeste 0 -- -- 100
2019-06-25 21:00:00 16.6 10 Noroeste 19 Noroeste 0.2 -- -- 100
2019-06-25 20:00:00 16.9 6 Noroeste 20 Noroeste 0 -- -- 100
2019-06-25 19:00:00 17 9 Noroeste 24 Noroeste 0.2 -- -- 100
2019-06-25 18:00:00 18 7 Noroeste 23 Noroeste 0 -- -- 98
2019-06-25 17:00:00 17.9 6 Noroeste 23 Noroeste 0 -- -- 96
2019-06-25 16:00:00 18.3 16 Noroeste 31 Noroeste 0 -- -- 96
2019-06-25 15:00:00 18.7 14 Noroeste 28 Noroeste 0 -- -- 100
2019-06-25 14:00:00 19.5 12 Noroeste 20 Noroeste 0.6 -- -- 100
2019-06-25 13:00:00 19.2 10 Norte 19 Noroeste 0.4 -- -- 100
2019-06-25 12:00:00 19.4 8 Norte 18 Oeste 0.4 -- -- 100
2019-06-25 11:00:00 18.8 8 Noroeste 16 Norte 0.4 -- -- 99
2019-06-25 10:00:00 19.3 3 Sudoeste 12 Oeste 0 -- -- 96
2019-06-25 09:00:00 18.4 4 Noroeste 14 Oeste 0 -- -- 99
2019-06-25 08:00:00 18.2 0 Calma 15 Oeste 0 -- -- 100
2019-06-25 07:00:00 15.9 6 Oeste 16 Noroeste 0 -- -- 100
2019-06-25 06:00:00 14.9 6 Oeste 10 Oeste 0 -- -- 100
2019-06-25 05:00:00 14.7 3 Noroeste 9 Oeste 0 -- -- 100
2019-06-25 04:00:00 14.4 8 Oeste 11 Oeste 0 -- -- 100
2019-06-25 03:00:00 14.5 5 Oeste 8 Oeste 0 -- -- 100
2019-06-25 02:00:00 14.7 4 Oeste 9 Oeste 0 -- -- 100
2019-06-25 01:00:00 14.8 3 Oeste 8 Oeste 0 -- -- 100
2019-06-25 00:00:00 15 3 Oeste 6 Oeste 0 -- -- 100
2019-06-24 23:00:00 15.3 2 Oeste 5 Oeste 0 -- -- 100
2019-06-24 22:00:00 15.1 4 Oeste 5 Oeste 0 -- -- 100
2019-06-24 21:00:00 16.7 0 Calma 4 Nordeste 0 -- -- 96
2019-06-24 20:00:00 19.2 3 Nordeste 8 Norte 0 -- -- 92
2019-06-24 19:00:00 20.5 5 Nordeste 8 Nordeste 0 -- -- 88
2019-06-24 18:00:00 20.4 4 Este 12 Norte 0 -- -- 90
2019-06-24 17:00:00 21 7 Nordeste 15 Norte 0 -- -- 86
2019-06-24 16:00:00 21.7 5 Norte 13 Nordeste 0 -- -- 85
2019-06-24 15:00:00 22.7 9 Norte 17 Nordeste 0 -- -- 80
2019-06-24 14:00:00 22.3 4 Nordeste 11 Nordeste 0 -- -- 81
2019-06-24 13:00:00 20.1 5 Norte 12 Norte 0 -- -- 88
2019-06-24 12:00:00 20.4 4 Nordeste 13 Norte 0 -- -- 86
2019-06-24 11:00:00 20.5 6 Norte 12 Nordeste 0 -- -- 84
2019-06-24 10:00:00 21.8 6 Nordeste 12 Sudeste 0 -- -- 78
2019-06-24 09:00:00 21.7 4 Este 8 Nordeste 0 -- -- 78
2019-06-24 08:00:00 18.9 3 Sudeste 10 Sur 0 -- -- 96
2019-06-24 07:00:00 14.9 2 Noroeste 6 Oeste 0 -- -- 100
2019-06-24 06:00:00 15.1 2 Noroeste 9 Norte 0 -- -- 100
2019-06-24 05:00:00 14.8 2 Sur 9 Noroeste 0 -- -- 99
2019-06-24 04:00:00 17 0 Calma 16 Noroeste 0 -- -- 95
2019-06-24 03:00:00 17 10 Oeste 23 Oeste 0 -- -- 96
2019-06-24 02:00:00 16.9 15 Oeste 26 Oeste 0 -- -- 96
2019-06-24 01:00:00 16.4 6 Oeste 21 Oeste 0 -- -- 94
2019-06-24 00:00:00 16.6 10 Noroeste 17 Oeste 0 -- -- 92
2019-06-23 23:00:00 15.5 5 Oeste 11 Noroeste 0 -- -- 94
2019-06-23 22:00:00 16.6 4 Sudoeste 20 Noroeste 0 -- -- 86
2019-06-23 21:00:00 17.4 9 Noroeste 18 Noroeste 0 -- -- 84
2019-06-23 20:00:00 18.8 5 Noroeste 22 Noroeste 0 -- -- 77
2019-06-23 19:00:00 23 9 Norte 20 Norte 0 -- -- 64
2019-06-23 18:00:00 22.7 12 Norte 25 Norte 0 -- -- 65
2019-06-23 17:00:00 23.6 10 Norte 27 Norte 0 -- -- 63
2019-06-23 16:00:00 22.7 12 Norte 23 Norte 0 -- -- 68
2019-06-23 15:00:00 22.4 15 Noroeste 27 Noroeste 0 -- -- 71
2019-06-23 14:00:00 23.3 14 Noroeste 29 Norte 0 -- -- 69
2019-06-23 13:00:00 24 12 Norte 22 Norte 0 -- -- 65
2019-06-23 12:00:00 22.8 15 Norte 25 Norte 0 -- -- 70
2019-06-23 11:00:00 22.7 9 Norte 20 Nordeste 0 -- -- 68
2019-06-23 10:00:00 21.3 11 Noroeste 25 Noroeste 0 -- -- 71
2019-06-23 09:00:00 20.3 4 Norte 19 Noroeste 0 -- -- 74
2019-06-23 08:00:00 17.7 7 Noroeste 21 Oeste 0 -- -- 88
2019-06-23 07:00:00 15.3 5 Oeste 25 Noroeste 0 -- -- 92
2019-06-23 06:00:00 15.5 12 Oeste 30 Oeste 0 -- -- 92
2019-06-23 05:00:00 15.2 13 Oeste 24 Noroeste 0 -- -- 94
2019-06-23 04:00:00 15.8 9 Oeste 32 Norte 0 -- -- 93
2019-06-23 03:00:00 15.9 12 Noroeste 31 Noroeste 0 -- -- 95
2019-06-23 02:00:00 15.7 14 Noroeste 30 Noroeste 0 -- -- 96
2019-06-23 01:00:00 15.7 15 Noroeste 25 Noroeste 0 -- -- 96
2019-06-23 00:00:00 15.9 9 Noroeste 26 Noroeste 0 -- -- 94
2019-06-22 23:00:00 15.4 10 Noroeste 28 Oeste 0 -- -- 94
2019-06-22 22:00:00 15.2 13 Oeste 32 Oeste 0 -- -- 92
2019-06-22 21:00:00 15.3 17 Noroeste 42 Noroeste 0 -- -- 93
2019-06-22 20:00:00 16.3 15 Noroeste 28 Noroeste 0 -- -- 89
2019-06-22 19:00:00 19.3 17 Noroeste 27 Noroeste 0 -- -- 76
2019-06-22 18:00:00 20.2 15 Noroeste 31 Noroeste 0 -- -- 70
2019-06-22 17:00:00 21.5 15 Noroeste 30 Noroeste 0 -- -- 64
2019-06-22 16:00:00 22.5 14 Noroeste 27 Noroeste 0 -- -- 57
2019-06-22 15:00:00 23 14 Noroeste 23 Noroeste 0 -- -- 60
2019-06-22 14:00:00 22.4 13 Noroeste 25 Noroeste 0 -- -- 60
2019-06-22 13:00:00 22.4 13 Norte 26 Norte 0 -- -- 68
2019-06-22 12:00:00 21 11 Noroeste 24 Noroeste 0 -- -- 64
2019-06-22 11:00:00 18.4 13 Noroeste 21 Noroeste 0 -- -- 80
2019-06-22 10:00:00 16.7 13 Noroeste 25 Noroeste 0 -- -- 87
2019-06-22 09:00:00 16.3 8 Oeste 25 Oeste 0 -- -- 86
2019-06-22 08:00:00 14.3 6 Noroeste 20 Oeste 0 -- -- 92
2019-06-22 07:00:00 13.9 6 Noroeste 21 Sudoeste 0 -- -- 93
2019-06-22 06:00:00 13.9 6 Oeste 20 Sudoeste 0 -- -- 94
2019-06-22 05:00:00 13.7 10 Noroeste 21 Noroeste 0 -- -- 96
2019-06-22 04:00:00 13.6 10 Noroeste 27 Noroeste 0 -- -- 97
2019-06-22 03:00:00 13.9 12 Noroeste 24 Norte 0 -- -- 97
2019-06-22 02:00:00 14.6 8 Noroeste 26 Noroeste 0 -- -- 95
2019-06-22 01:00:00 14.5 9 Oeste 28 Oeste 0 -- -- 93
2019-06-22 00:00:00 14.5 11 Noroeste 30 Noroeste 0 -- -- 95
2019-06-21 23:00:00 14.5 10 Noroeste 22 Noroeste 0 -- -- 95
2019-06-21 22:00:00 15.1 10 Noroeste 23 Noroeste 0 -- -- 92
2019-06-21 21:00:00 15.2 12 Noroeste 23 Oeste 0 -- -- 92
2019-06-21 20:00:00 16 13 Noroeste 22 Noroeste 0 -- -- 85
2019-06-21 19:00:00 18.3 13 Noroeste 21 Noroeste 0 -- -- 76
2019-06-21 18:00:00 18.2 12 Norte 23 Norte 0 -- -- 78
2019-06-21 17:00:00 19.6 13 Norte 26 Norte 0 -- -- 72
2019-06-21 16:00:00 19.6 13 Norte 24 Norte 0 -- -- 72
2019-06-21 15:00:00 20.6 13 Norte 25 Norte 0 -- -- 71
2019-06-21 14:00:00 19.7 13 Norte 23 Norte 0 -- -- 76
2019-06-21 13:00:00 18.5 11 Norte 22 Norte 0 -- -- 82
2019-06-21 12:00:00 18.4 9 Noroeste 17 Noroeste 0 -- -- 74
2019-06-21 11:00:00 18.3 11 Noroeste 23 Noroeste 0 -- -- 77
2019-06-21 10:00:00 17 9 Noroeste 23 Norte 0 -- -- 84
2019-06-21 09:00:00 15.6 12 Noroeste 25 Oeste 0 -- -- 92
2019-06-21 08:00:00 14.9 6 Oeste 24 Oeste 0 -- -- 92
2019-06-21 07:00:00 14.6 8 Noroeste 22 Noroeste 0 -- -- 93
2019-06-21 06:00:00 14.4 10 Noroeste 23 Noroeste 0 -- -- 96
2019-06-21 05:00:00 14.7 8 Oeste 21 Noroeste 0 -- -- 91
2019-06-21 04:00:00 14.3 6 Oeste 19 Noroeste 0 -- -- 93
2019-06-21 03:00:00 14.4 7 Oeste 23 Noroeste 0 -- -- 93
2019-06-21 02:00:00 14.5 5 Oeste 19 Oeste 0 -- -- 94
2019-06-21 01:00:00 14.6 8 Oeste 22 Oeste 0 -- -- 92
2019-06-21 00:00:00 14.8 3 Noroeste 19 Noroeste 0 -- -- 92
2019-06-20 23:00:00 15.1 8 Noroeste 18 Noroeste 0 -- -- 94
2019-06-20 22:00:00 15 8 Noroeste 18 Norte 0 -- -- 95
2019-06-20 21:00:00 15.3 8 Noroeste 21 Norte 0 -- -- 94
2019-06-20 20:00:00 16.6 9 Noroeste 24 Noroeste 0 -- -- 90
2019-06-20 19:00:00 17.6 11 Noroeste 21 Noroeste 0 -- -- 85
2019-06-20 18:00:00 18.9 9 Noroeste 28 Norte 0 -- -- 79
2019-06-20 17:00:00 20.6 14 Noroeste 28 Norte 0 -- -- 65
2019-06-20 16:00:00 21.9 12 Norte 29 Norte 0 -- -- 61
2019-06-20 15:00:00 21.6 12 Norte 27 Norte 0 -- -- 64
2019-06-20 14:00:00 21.8 12 Norte 29 Nordeste 0 -- -- 63
2019-06-20 13:00:00 21.7 12 Norte 24 Norte 0 -- -- 62
2019-06-20 12:00:00 21.2 13 Norte 24 Norte 0 -- -- 67
2019-06-20 11:00:00 18.8 9 Noroeste 25 Noroeste 0 -- -- 76
2019-06-20 10:00:00 19.7 10 Norte 21 Norte 0 -- -- 74
2019-06-20 09:00:00 17.2 7 Noroeste 22 Oeste 0 -- -- 88
2019-06-20 08:00:00 16.6 7 Noroeste 18 Sudoeste 0 -- -- 92
2019-06-20 07:00:00 15.1 12 Oeste 23 Oeste 0 -- -- 92
2019-06-20 06:00:00 14.6 12 Oeste 30 Oeste 0 -- -- 93
2019-06-20 05:00:00 14.6 10 Oeste 25 Oeste 0 -- -- 92
2019-06-20 04:00:00 14.4 11 Oeste 24 Oeste 0 -- -- 92
2019-06-20 03:00:00 15 10 Noroeste 27 Noroeste 0 -- -- 95
2019-06-20 02:00:00 15 6 Oeste 24 Oeste 0 -- -- 91
2019-06-20 01:00:00 15.3 11 Oeste 20 Sudoeste 0 -- -- 91
2019-06-20 00:00:00 15.5 10 Oeste 24 Oeste 0 -- -- 91
2019-06-19 23:00:00 15.7 12 Oeste 25 Oeste 0 -- -- 84
2019-06-19 22:00:00 15.7 11 Oeste 22 Oeste 0 -- -- 87
2019-06-19 21:00:00 15.8 5 Oeste 19 Noroeste 0 -- -- 87
2019-06-19 20:00:00 17.1 7 Noroeste 18 Noroeste 0 -- -- 85
2019-06-19 19:00:00 20.6 9 Norte 21 Norte 0 -- -- 69
2019-06-19 18:00:00 21.5 13 Norte 30 Norte 0 -- -- 62
2019-06-19 17:00:00 21.9 13 Norte 30 Norte 0 -- -- 62
2019-06-19 16:00:00 21.8 15 Norte 36 Norte 0 -- -- 64
2019-06-19 15:00:00 21.2 15 Norte 31 Norte 0 -- -- 71
2019-06-19 14:00:00 21.8 15 Norte 30 Norte 0 -- -- 71
2019-06-19 13:00:00 -- -- -- -- -- -- -- -- --
2019-06-19 12:00:00 20.4 14 Norte -- -- -- -- -- 75
2019-06-19 11:00:00 -- -- -- -- -- -- -- -- --
2019-06-19 10:00:00 -- -- -- -- -- -- -- -- --
2019-06-19 09:00:00 -- -- -- -- -- -- -- -- --
2019-06-19 08:00:00 -- -- -- -- -- -- -- -- --
2019-06-19 07:00:00 -- -- -- -- -- -- -- -- --
2019-06-19 06:00:00 -- -- -- -- -- -- -- -- --
2019-06-19 05:00:00 -- -- -- -- -- -- -- -- --
2019-06-19 04:00:00 -- -- -- -- -- -- -- -- --
2019-06-19 03:00:00 -- -- -- -- -- -- -- -- --
2019-06-19 02:00:00 -- -- -- -- -- -- -- -- --
2019-06-19 01:00:00 -- -- -- -- -- -- -- -- --
2019-06-19 00:00:00 -- -- -- -- -- -- -- -- --
2019-06-18 23:00:00 -- -- -- -- -- -- -- -- --
2019-06-18 22:00:00 -- -- -- -- -- -- -- -- --
2019-06-18 21:00:00 -- -- -- -- -- -- -- -- --
2019-06-18 20:00:00 -- -- -- -- -- -- -- -- --
2019-06-18 19:00:00 -- -- -- -- -- -- -- -- --
2019-06-18 18:00:00 17.7 4 Norte 10 Norte 0 -- -- 97
2019-06-18 17:00:00 18.4 5 Nordeste 12 Nordeste 0 -- -- 93
2019-06-18 16:00:00 19.8 4 Nordeste 15 Norte 0 -- -- 84
2019-06-18 15:00:00 20.6 8 Norte 15 Norte 0 -- -- 77
2019-06-18 14:00:00 20 8 Norte 17 Norte 0 -- -- 81
2019-06-18 13:00:00 20.5 9 Norte 22 Noroeste 0 -- -- 78
2019-06-18 12:00:00 20.9 9 Noroeste 24 Noroeste 0 -- -- 76
2019-06-18 11:00:00 20.7 11 Norte 23 Norte 0 -- -- 81
2019-06-18 10:00:00 20.6 15 Noroeste 25 Noroeste 0 -- -- 78
2019-06-18 09:00:00 19.1 8 Noroeste 20 Noroeste 0 -- -- 84
2019-06-18 08:00:00 17.8 6 Noroeste 14 Noroeste 0 -- -- 83
2019-06-18 07:00:00 14.9 3 Sur 15 Oeste 0 -- -- 87
2019-06-18 06:00:00 15.2 8 Oeste 14 Oeste 0 -- -- 87
2019-06-18 05:00:00 13.5 5 Noroeste 11 Oeste 0 -- -- 94
2019-06-18 04:00:00 12 4 Noroeste 8 Sudoeste 0 -- -- 97
2019-06-18 03:00:00 12.7 3 Sur 8 Oeste 0 -- -- 96
2019-06-18 02:00:00 13.7 2 Sudoeste 8 Oeste 0 -- -- 96
2019-06-18 01:00:00 15.2 4 Oeste 14 Oeste 0 -- -- 93
2019-06-18 00:00:00 16.2 5 Noroeste 17 Oeste 0 -- -- 90
2019-06-17 23:00:00 14.4 4 Sur 7 Sur 0 -- -- 89
2019-06-17 22:00:00 13.8 3 Noroeste 9 Noroeste 0 -- -- 90
2019-06-17 21:00:00 15.1 6 Noroeste 9 Noroeste 0 -- -- 89
2019-06-17 20:00:00 17 4 Noroeste 12 Este 0 -- -- 77
2019-06-17 19:00:00 21.6 5 Nordeste 16 Nordeste 0 -- -- 61
2019-06-17 18:00:00 22 6 Nordeste 19 Este 0 -- -- 59
2019-06-17 17:00:00 22.3 9 Norte 21 Norte 0 -- -- 58
2019-06-17 16:00:00 22.3 9 Norte 19 Norte 0 -- -- 57
2019-06-17 15:00:00 22.4 10 Nordeste 20 Nordeste 0 -- -- 57
2019-06-17 14:00:00 22.6 9 Nordeste 20 Norte 0 -- -- 60
2019-06-17 13:00:00 21.9 10 Norte 19 Norte 0 -- -- 66
2019-06-17 12:00:00 22.1 10 Nordeste 18 Nordeste 0 -- -- 62
2019-06-17 11:00:00 21.9 8 Nordeste 18 Nordeste 0 -- -- 62
2019-06-17 10:00:00 20.6 6 Nordeste 18 Noroeste 0 -- -- 70
2019-06-17 09:00:00 20.2 6 Norte 18 Noroeste 0 -- -- 64
2019-06-17 08:00:00 17.9 5 Oeste 21 Sudoeste 0 -- -- 63
2019-06-17 07:00:00 11.3 4 Sur 7 Sudeste 0 -- -- 97
2019-06-17 06:00:00 10.7 0 Calma 5 Oeste 0 -- -- 94
2019-06-17 05:00:00 13.8 3 Sudeste 14 Norte 0 -- -- 70
2019-06-17 04:00:00 14.7 6 Oeste 26 Oeste 0 -- -- 69
2019-06-17 03:00:00 14.6 9 Oeste 21 Oeste 0 -- -- 73
2019-06-17 02:00:00 10.6 2 Sur 9 Oeste 0 -- -- 96
2019-06-17 01:00:00 11.3 2 Sudoeste 12 Oeste 0 -- -- 97
2019-06-17 00:00:00 9.9 2 Noroeste 7 Oeste 0 -- -- 100
2019-06-16 23:00:00 10.4 3 Oeste 5 Oeste 0 -- -- 100
2019-06-16 22:00:00 10.8 3 Sudoeste 6 Noroeste 0 -- -- 99
2019-06-16 21:00:00 12.5 5 Noroeste 6 Noroeste 0 -- -- 96
2019-06-16 20:00:00 15.3 4 Nordeste 12 Norte 0 -- -- 88
2019-06-16 19:00:00 16.5 6 Nordeste 16 Este 0 -- -- 84
2019-06-16 18:00:00 19.3 9 Nordeste 16 Nordeste 0 -- -- 73
2019-06-16 17:00:00 19.4 6 Nordeste 15 Nordeste 0 -- -- 73
2019-06-16 16:00:00 18.5 5 Nordeste 13 Este 0 -- -- 76
2019-06-16 15:00:00 17.1 6 Nordeste 13 Este 0 -- -- 82
2019-06-16 14:00:00 16.7 8 Nordeste 14 Nordeste 0 -- -- 84
2019-06-16 13:00:00 18.2 8 Nordeste 15 Norte 0 -- -- 79
2019-06-16 12:00:00 17.4 6 Nordeste 15 Norte 0 -- -- 80
2019-06-16 11:00:00 19.1 9 Nordeste 16 Nordeste 0 -- -- 72
2019-06-16 10:00:00 17.7 7 Nordeste 13 Nordeste 0 -- -- 78
2019-06-16 09:00:00 18 4 Nordeste 8 Este 0 -- -- 75
2019-06-16 08:00:00 14.4 0 Calma 9 Oeste 0 -- -- 97
2019-06-16 07:00:00 8.8 8 Oeste 12 Noroeste 0 -- -- 100
2019-06-16 06:00:00 8.3 8 Noroeste 10 Noroeste 0 -- -- 100
2019-06-16 05:00:00 8.7 3 Sudoeste 7 Sudoeste 0 -- -- 100
2019-06-16 04:00:00 9.2 4 Oeste 7 Oeste 0 -- -- 100
2019-06-16 03:00:00 10.2 3 Sudoeste 5 Sudoeste 0 -- -- 99
2019-06-16 02:00:00 12.5 0 Calma 4 Este 0 -- -- 98
2019-06-16 01:00:00 13.2 2 Nordeste 8 Este 0 -- -- 98
2019-06-16 00:00:00 13.3 4 Este 8 Este 0 -- -- 97